AUA871 LOWW-LGRP
Flight info
| Callsign | AUA871 |
|---|---|
| Flight time | 1h 48m |
| Altitude | 39000 |
| Route | ARSIN DCT NALOX DCT SUNOR DCT OSDUK DCT SOMUN DCT VABEK UL603 OLOTA DCT DISOR DCT MES UN139 LURUS UL995 CODIC |
| Aircraft | A20N/M-SDE2E3FGHIJ1RWXY/LB1 |
Departure
| Time | 2026-04-21 09:12 |
|---|---|
| Airport | Vienna International Airport (LOWW) |
Arrival
| Time | 2026-04-21 11:00 |
|---|---|
| Airport | Rhodes International Airport "Diagoras" (LGRP) |
| Time | Latitude | Longitude | Altitude | Speed | Heading |
|---|---|---|---|---|---|
| 2026-04-21 08:29 | 48.11845 | 16.56934 | 600 ft | 0 kts | 207° |
| 2026-04-21 09:03 | 48.11859 | 16.56945 | 599 ft | 2 kts | 206° |
| 2026-04-21 09:03 | 48.11874 | 16.56956 | 598 ft | 0 kts | 206° |
| 2026-04-21 09:03 | 48.11888 | 16.56963 | 598 ft | 2 kts | 181° |
| 2026-04-21 09:03 | 48.11907 | 16.56957 | 596 ft | 2 kts | 151° |
| 2026-04-21 09:04 | 48.11921 | 16.56939 | 595 ft | 1 kts | 121° |
| 2026-04-21 09:04 | 48.11924 | 16.56928 | 595 ft | 1 kts | 115° |
| 2026-04-21 09:04 | 48.11925 | 16.56926 | 595 ft | 0 kts | 116° |
| 2026-04-21 09:06 | 48.11911 | 16.56969 | 596 ft | 8 kts | 116° |
| 2026-04-21 09:06 | 48.11869 | 16.57095 | 598 ft | 12 kts | 116° |
| 2026-04-21 09:06 | 48.11842 | 16.57251 | 596 ft | 13 kts | 118° |
| 2026-04-21 09:06 | 48.11810 | 16.57427 | 594 ft | 16 kts | 103° |
| 2026-04-21 09:07 | 48.11697 | 16.57514 | 594 ft | 15 kts | 167° |
| 2026-04-21 09:07 | 48.11568 | 16.57562 | 596 ft | 15 kts | 160° |
| 2026-04-21 09:07 | 48.11425 | 16.57634 | 596 ft | 21 kts | 162° |
| 2026-04-21 09:07 | 48.11237 | 16.57712 | 595 ft | 24 kts | 163° |
| 2026-04-21 09:08 | 48.11045 | 16.57790 | 598 ft | 22 kts | 166° |
| 2026-04-21 09:08 | 48.10868 | 16.57862 | 598 ft | 22 kts | 164° |
| 2026-04-21 09:08 | 48.10697 | 16.57942 | 601 ft | 20 kts | 165° |
| 2026-04-21 09:08 | 48.10537 | 16.58005 | 604 ft | 19 kts | 165° |
| 2026-04-21 09:09 | 48.10376 | 16.58075 | 605 ft | 20 kts | 165° |
| 2026-04-21 09:09 | 48.10199 | 16.58150 | 606 ft | 24 kts | 164° |
| 2026-04-21 09:09 | 48.10005 | 16.58233 | 607 ft | 24 kts | 165° |
| 2026-04-21 09:09 | 48.09808 | 16.58312 | 605 ft | 24 kts | 165° |
| 2026-04-21 09:10 | 48.09610 | 16.58395 | 604 ft | 24 kts | 164° |
| 2026-04-21 09:10 | 48.09414 | 16.58481 | 602 ft | 24 kts | 165° |
| 2026-04-21 09:10 | 48.09211 | 16.58563 | 599 ft | 25 kts | 166° |
| 2026-04-21 09:10 | 48.09015 | 16.58654 | 592 ft | 21 kts | 163° |
| 2026-04-21 09:11 | 48.08860 | 16.58720 | 587 ft | 19 kts | 150° |
| 2026-04-21 09:11 | 48.08799 | 16.58955 | 578 ft | 23 kts | 73° |
| 2026-04-21 09:11 | 48.08940 | 16.59100 | 578 ft | 21 kts | 354° |
| 2026-04-21 09:11 | 48.09235 | 16.58980 | 587 ft | 76 kts | 342° |
| 2026-04-21 09:12 | 48.10127 | 16.58598 | 641 ft | 147 kts | 343° |
| 2026-04-21 09:12 | 48.11169 | 16.58182 | 1595 ft | 137 kts | 343° |
| 2026-04-21 09:12 | 48.12214 | 16.57718 | 2439 ft | 140 kts | 343° |
| 2026-04-21 09:12 | 48.13341 | 16.57221 | 3191 ft | 154 kts | 344° |
| 2026-04-21 09:13 | 48.14513 | 16.56308 | 3906 ft | 175 kts | 316° |
| 2026-04-21 09:13 | 48.15116 | 16.54126 | 4626 ft | 206 kts | 275° |
| 2026-04-21 09:13 | 48.14459 | 16.51653 | 5205 ft | 246 kts | 226° |
| 2026-04-21 09:13 | 48.12771 | 16.50145 | 6014 ft | 267 kts | 205° |
| 2026-04-21 09:14 | 48.10606 | 16.48883 | 6900 ft | 287 kts | 201° |
| 2026-04-21 09:14 | 48.08265 | 16.47649 | 8134 ft | 293 kts | 193° |
| 2026-04-21 09:14 | 48.05827 | 16.47407 | 9365 ft | 295 kts | 174° |
| 2026-04-21 09:14 | 48.03345 | 16.47881 | 10547 ft | 299 kts | 171° |
| 2026-04-21 09:15 | 48.00778 | 16.48446 | 11309 ft | 318 kts | 172° |
| 2026-04-21 09:15 | 47.97986 | 16.48858 | 12175 ft | 331 kts | 183° |
| 2026-04-21 09:15 | 47.95210 | 16.47944 | 13298 ft | 333 kts | 205° |
| 2026-04-21 09:15 | 47.92699 | 16.46061 | 14369 ft | 336 kts | 211° |
| 2026-04-21 09:16 | 47.90106 | 16.43959 | 15402 ft | 342 kts | 209° |
| 2026-04-21 09:16 | 47.87350 | 16.42810 | 16347 ft | 351 kts | 184° |
| 2026-04-21 09:16 | 47.84435 | 16.43426 | 17306 ft | 357 kts | 166° |
| 2026-04-21 09:16 | 47.81649 | 16.44586 | 18139 ft | 363 kts | 165° |
| 2026-04-21 09:17 | 47.78788 | 16.45800 | 18972 ft | 368 kts | 166° |
| 2026-04-21 09:17 | 47.75886 | 16.46995 | 19829 ft | 372 kts | 167° |
| 2026-04-21 09:17 | 47.72997 | 16.48149 | 20683 ft | 376 kts | 167° |
| 2026-04-21 09:17 | 47.70089 | 16.49295 | 21489 ft | 380 kts | 167° |
| 2026-04-21 09:18 | 47.67185 | 16.50439 | 22275 ft | 384 kts | 166° |
| 2026-04-21 09:18 | 47.64245 | 16.52446 | 23040 ft | 392 kts | 142° |
| 2026-04-21 09:18 | 47.62158 | 16.56379 | 23852 ft | 397 kts | 115° |
| 2026-04-21 09:18 | 47.60923 | 16.60740 | 24594 ft | 401 kts | 111° |
| 2026-04-21 09:19 | 47.59734 | 16.65061 | 25186 ft | 407 kts | 112° |
| 2026-04-21 09:19 | 47.58443 | 16.69507 | 25784 ft | 412 kts | 116° |
| 2026-04-21 09:19 | 47.56376 | 16.73468 | 26298 ft | 416 kts | 143° |
| 2026-04-21 09:19 | 47.53313 | 16.75763 | 26891 ft | 414 kts | 169° |
| 2026-04-21 09:20 | 47.49979 | 16.76298 | 27456 ft | 413 kts | 181° |
| 2026-04-21 09:20 | 47.46674 | 16.76518 | 28013 ft | 417 kts | 181° |
| 2026-04-21 09:20 | 47.43360 | 16.76756 | 28465 ft | 421 kts | 181° |
| 2026-04-21 09:20 | 47.40019 | 16.77036 | 28908 ft | 425 kts | 181° |
| 2026-04-21 09:21 | 47.36641 | 16.77335 | 29400 ft | 428 kts | 181° |
| 2026-04-21 09:21 | 47.33224 | 16.77643 | 29866 ft | 432 kts | 180° |
| 2026-04-21 09:21 | 47.29758 | 16.77968 | 30264 ft | 436 kts | 180° |
| 2026-04-21 09:21 | 47.26314 | 16.78296 | 30629 ft | 439 kts | 181° |
| 2026-04-21 09:22 | 47.22796 | 16.78641 | 30957 ft | 442 kts | 182° |
| 2026-04-21 09:22 | 47.19244 | 16.78987 | 31284 ft | 444 kts | 183° |
| 2026-04-21 09:22 | 47.15672 | 16.79317 | 31693 ft | 444 kts | 182° |
| 2026-04-21 09:22 | 47.12120 | 16.79650 | 32096 ft | 444 kts | 182° |
| 2026-04-21 09:23 | 47.08600 | 16.79988 | 32486 ft | 443 kts | 183° |
| 2026-04-21 09:23 | 47.05039 | 16.80320 | 32818 ft | 444 kts | 183° |
| 2026-04-21 09:23 | 47.01442 | 16.80650 | 33130 ft | 445 kts | 183° |
| 2026-04-21 09:23 | 46.97906 | 16.80985 | 33465 ft | 445 kts | 183° |
| 2026-04-21 09:24 | 46.94252 | 16.81370 | 33788 ft | 447 kts | 180° |
| 2026-04-21 09:24 | 46.90580 | 16.82346 | 34196 ft | 453 kts | 171° |
| 2026-04-21 09:24 | 46.87112 | 16.84025 | 34591 ft | 458 kts | 162° |
| 2026-04-21 09:24 | 46.83700 | 16.86508 | 34933 ft | 464 kts | 153° |
| 2026-04-21 09:25 | 46.80551 | 16.89720 | 35296 ft | 468 kts | 144° |
| 2026-04-21 09:25 | 46.77697 | 16.93222 | 35662 ft | 468 kts | 142° |
| 2026-04-21 09:25 | 46.74898 | 16.96752 | 35969 ft | 467 kts | 141° |
| 2026-04-21 09:25 | 46.72103 | 17.00250 | 36361 ft | 464 kts | 141° |
| 2026-04-21 09:26 | 46.69260 | 17.03777 | 36771 ft | 462 kts | 141° |
| 2026-04-21 09:26 | 46.66449 | 17.07236 | 37032 ft | 461 kts | 141° |
| 2026-04-21 09:26 | 46.63606 | 17.10707 | 37327 ft | 460 kts | 141° |
| 2026-04-21 09:26 | 46.60790 | 17.14147 | 37643 ft | 460 kts | 141° |
| 2026-04-21 09:27 | 46.57968 | 17.17587 | 37916 ft | 461 kts | 141° |
| 2026-04-21 09:27 | 46.55113 | 17.21063 | 38117 ft | 462 kts | 141° |
| 2026-04-21 09:27 | 46.52271 | 17.24516 | 38362 ft | 462 kts | 141° |
| 2026-04-21 09:27 | 46.49380 | 17.28018 | 38538 ft | 463 kts | 141° |
| 2026-04-21 09:28 | 46.46466 | 17.31563 | 38868 ft | 464 kts | 141° |
| 2026-04-21 09:28 | 46.43562 | 17.35128 | 39037 ft | 465 kts | 141° |
| 2026-04-21 09:28 | 46.37723 | 17.42297 | 39044 ft | 467 kts | 141° |
| 2026-04-21 09:29 | 46.31802 | 17.49531 | 39074 ft | 466 kts | 141° |
| 2026-04-21 09:29 | 46.25834 | 17.56801 | 39060 ft | 466 kts | 141° |
| 2026-04-21 09:30 | 46.19835 | 17.64084 | 39019 ft | 467 kts | 141° |
| 2026-04-21 09:30 | 46.13810 | 17.71374 | 39037 ft | 467 kts | 142° |
| 2026-04-21 09:31 | 46.07779 | 17.78647 | 39050 ft | 465 kts | 142° |
| 2026-04-21 09:31 | 46.01731 | 17.85925 | 39024 ft | 465 kts | 142° |
| 2026-04-21 09:32 | 45.95715 | 17.93135 | 39012 ft | 465 kts | 142° |
| 2026-04-21 09:32 | 45.89672 | 18.00363 | 39081 ft | 466 kts | 142° |
| 2026-04-21 09:33 | 45.83886 | 18.07259 | 39096 ft | 466 kts | 142° |
| 2026-04-21 09:33 | 45.77856 | 18.13973 | 39012 ft | 464 kts | 148° |
| 2026-04-21 09:34 | 45.71333 | 18.19604 | 39014 ft | 463 kts | 152° |
| 2026-04-21 09:34 | 45.64777 | 18.25031 | 39125 ft | 463 kts | 153° |
| 2026-04-21 09:35 | 45.61470 | 18.27769 | 39005 ft | 462 kts | 153° |
| 2026-04-21 09:35 | 45.58221 | 18.30460 | 39050 ft | 463 kts | 152° |
| 2026-04-21 09:35 | 45.51614 | 18.35922 | 39037 ft | 463 kts | 152° |
| 2026-04-21 09:36 | 45.45027 | 18.41360 | 39050 ft | 463 kts | 153° |
| 2026-04-21 09:36 | 45.38434 | 18.46787 | 39034 ft | 463 kts | 153° |
| 2026-04-21 09:37 | 45.31863 | 18.52178 | 39095 ft | 462 kts | 153° |
| 2026-04-21 09:37 | 45.25266 | 18.57577 | 39088 ft | 462 kts | 153° |
| 2026-04-21 09:38 | 45.18700 | 18.62937 | 39064 ft | 462 kts | 153° |
| 2026-04-21 09:38 | 45.12044 | 18.68358 | 39106 ft | 461 kts | 153° |
| 2026-04-21 09:39 | 45.05473 | 18.73692 | 39070 ft | 463 kts | 154° |
| 2026-04-21 09:39 | 44.98871 | 18.79038 | 39067 ft | 463 kts | 154° |
| 2026-04-21 09:40 | 44.92211 | 18.84415 | 39012 ft | 462 kts | 154° |
| 2026-04-21 09:40 | 44.85814 | 18.89567 | 39017 ft | 463 kts | 154° |
| 2026-04-21 09:41 | 44.79499 | 18.94641 | 39066 ft | 462 kts | 154° |
| 2026-04-21 09:41 | 44.73268 | 18.99632 | 39018 ft | 462 kts | 154° |
| 2026-04-21 09:42 | 44.67008 | 19.04631 | 39023 ft | 462 kts | 154° |
| 2026-04-21 09:42 | 44.60623 | 19.09748 | 39050 ft | 463 kts | 152° |
| 2026-04-21 09:43 | 44.54399 | 19.15620 | 39026 ft | 465 kts | 148° |
| 2026-04-21 09:43 | 44.48293 | 19.21633 | 39005 ft | 466 kts | 148° |
| 2026-04-21 09:44 | 44.42162 | 19.27638 | 38997 ft | 464 kts | 148° |
| 2026-04-21 09:44 | 44.36064 | 19.33586 | 39008 ft | 464 kts | 148° |
| 2026-04-21 09:45 | 44.29912 | 19.39571 | 39026 ft | 465 kts | 148° |
| 2026-04-21 09:45 | 44.23682 | 19.45614 | 39028 ft | 465 kts | 148° |
| 2026-04-21 09:46 | 44.17430 | 19.51661 | 39025 ft | 466 kts | 149° |
| 2026-04-21 09:46 | 44.11156 | 19.57715 | 39033 ft | 466 kts | 149° |
| 2026-04-21 09:47 | 44.04800 | 19.63832 | 38992 ft | 466 kts | 149° |
| 2026-04-21 09:47 | 43.98513 | 19.69868 | 39022 ft | 466 kts | 150° |
| 2026-04-21 09:48 | 43.92116 | 19.75990 | 38992 ft | 466 kts | 150° |
| 2026-04-21 09:48 | 43.85922 | 19.81902 | 39022 ft | 466 kts | 149° |
| 2026-04-21 09:49 | 43.79724 | 19.87804 | 39022 ft | 465 kts | 149° |
| 2026-04-21 09:49 | 43.73415 | 19.93798 | 39006 ft | 465 kts | 149° |
| 2026-04-21 09:50 | 43.69289 | 19.97709 | 39024 ft | 466 kts | 150° |
| 2026-04-21 09:50 | 43.60997 | 20.05548 | 39005 ft | 466 kts | 150° |
| 2026-04-21 09:51 | 43.54705 | 20.11476 | 39004 ft | 466 kts | 149° |
| 2026-04-21 09:51 | 43.48353 | 20.17449 | 38995 ft | 465 kts | 149° |
| 2026-04-21 09:52 | 43.42042 | 20.23367 | 39024 ft | 465 kts | 150° |
| 2026-04-21 09:52 | 43.35726 | 20.29271 | 38998 ft | 465 kts | 149° |
| 2026-04-21 09:53 | 43.29456 | 20.35123 | 39013 ft | 466 kts | 150° |
| 2026-04-21 09:53 | 43.23206 | 20.40937 | 39021 ft | 465 kts | 150° |
| 2026-04-21 09:54 | 43.16939 | 20.46750 | 39012 ft | 466 kts | 150° |
| 2026-04-21 09:54 | 43.10631 | 20.52590 | 39041 ft | 466 kts | 150° |
| 2026-04-21 09:55 | 43.04307 | 20.58425 | 39039 ft | 466 kts | 149° |
| 2026-04-21 09:55 | 42.98073 | 20.65009 | 38998 ft | 471 kts | 141° |
| 2026-04-21 09:56 | 42.92358 | 20.72467 | 38996 ft | 472 kts | 140° |
| 2026-04-21 09:56 | 42.86682 | 20.79915 | 39016 ft | 472 kts | 140° |
| 2026-04-21 09:57 | 42.81119 | 20.87164 | 39038 ft | 472 kts | 140° |
| 2026-04-21 09:57 | 42.75518 | 20.94435 | 39048 ft | 472 kts | 140° |
| 2026-04-21 09:58 | 42.69897 | 21.01713 | 39039 ft | 470 kts | 140° |
| 2026-04-21 09:58 | 42.64284 | 21.08957 | 39050 ft | 470 kts | 140° |
| 2026-04-21 09:59 | 42.58704 | 21.16141 | 39066 ft | 471 kts | 140° |
| 2026-04-21 09:59 | 42.53080 | 21.23365 | 39035 ft | 471 kts | 139° |
| 2026-04-21 10:00 | 42.47390 | 21.30654 | 39019 ft | 470 kts | 140° |
| 2026-04-21 10:00 | 42.41679 | 21.37948 | 38988 ft | 470 kts | 140° |
| 2026-04-21 10:01 | 42.35871 | 21.45347 | 38965 ft | 470 kts | 140° |
| 2026-04-21 10:01 | 42.29964 | 21.52850 | 38971 ft | 470 kts | 140° |
| 2026-04-21 10:02 | 42.21046 | 21.64068 | 38946 ft | 469 kts | 141° |
| 2026-04-21 10:03 | 42.15074 | 21.71111 | 38996 ft | 468 kts | 142° |
| 2026-04-21 10:03 | 42.09158 | 21.78063 | 38992 ft | 468 kts | 142° |
| 2026-04-21 10:04 | 42.03217 | 21.85055 | 38991 ft | 467 kts | 142° |
| 2026-04-21 10:04 | 41.97181 | 21.92144 | 38969 ft | 469 kts | 142° |
| 2026-04-21 10:05 | 41.91021 | 21.99359 | 38985 ft | 469 kts | 142° |
| 2026-04-21 10:05 | 41.85095 | 22.06286 | 38918 ft | 469 kts | 142° |
| 2026-04-21 10:06 | 41.79216 | 22.13136 | 38931 ft | 469 kts | 142° |
| 2026-04-21 10:06 | 41.73351 | 22.19957 | 38939 ft | 469 kts | 142° |
| 2026-04-21 10:07 | 41.67546 | 22.26692 | 38926 ft | 470 kts | 142° |
| 2026-04-21 10:07 | 41.61679 | 22.33475 | 38909 ft | 471 kts | 142° |
| 2026-04-21 10:08 | 41.55765 | 22.40301 | 38914 ft | 471 kts | 142° |
| 2026-04-21 10:08 | 41.49765 | 22.47206 | 38911 ft | 471 kts | 142° |
| 2026-04-21 10:09 | 41.43628 | 22.54250 | 38922 ft | 471 kts | 142° |
| 2026-04-21 10:09 | 41.37515 | 22.61251 | 38915 ft | 471 kts | 142° |
| 2026-04-21 10:10 | 41.31402 | 22.68230 | 38917 ft | 472 kts | 143° |
| 2026-04-21 10:10 | 41.25397 | 22.75067 | 38914 ft | 471 kts | 143° |
| 2026-04-21 10:11 | 41.19338 | 22.81857 | 38921 ft | 470 kts | 143° |
| 2026-04-21 10:11 | 41.13184 | 22.88676 | 38902 ft | 470 kts | 144° |
| 2026-04-21 10:12 | 41.06961 | 22.95563 | 38904 ft | 471 kts | 143° |
| 2026-04-21 10:12 | 41.00720 | 23.02457 | 38897 ft | 471 kts | 144° |
| 2026-04-21 10:13 | 40.94377 | 23.09446 | 38889 ft | 470 kts | 144° |
| 2026-04-21 10:13 | 40.88269 | 23.16154 | 38902 ft | 470 kts | 144° |
| 2026-04-21 10:14 | 40.82217 | 23.22787 | 38911 ft | 470 kts | 144° |
| 2026-04-21 10:14 | 40.76291 | 23.29268 | 38918 ft | 470 kts | 144° |
| 2026-04-21 10:15 | 40.70305 | 23.35800 | 38917 ft | 471 kts | 144° |
| 2026-04-21 10:15 | 40.64254 | 23.42383 | 38906 ft | 471 kts | 144° |
| 2026-04-21 10:16 | 40.58078 | 23.49088 | 38895 ft | 471 kts | 144° |
| 2026-04-21 10:16 | 40.51850 | 23.55832 | 38914 ft | 471 kts | 144° |
| 2026-04-21 10:17 | 40.45572 | 23.62615 | 38894 ft | 472 kts | 144° |
| 2026-04-21 10:17 | 40.39238 | 23.69439 | 38903 ft | 471 kts | 144° |
| 2026-04-21 10:18 | 40.32909 | 23.76240 | 38898 ft | 472 kts | 144° |
| 2026-04-21 10:18 | 40.26526 | 23.83084 | 38903 ft | 472 kts | 144° |
| 2026-04-21 10:19 | 40.20079 | 23.89977 | 38877 ft | 472 kts | 144° |
| 2026-04-21 10:19 | 40.13636 | 23.96850 | 38890 ft | 473 kts | 145° |
| 2026-04-21 10:20 | 40.07141 | 24.03760 | 38897 ft | 473 kts | 144° |
| 2026-04-21 10:20 | 40.00688 | 24.10609 | 38880 ft | 473 kts | 144° |
| 2026-04-21 10:21 | 39.94176 | 24.17500 | 38900 ft | 473 kts | 144° |
| 2026-04-21 10:21 | 39.87789 | 24.24245 | 38942 ft | 472 kts | 144° |
| 2026-04-21 10:22 | 39.81638 | 24.30723 | 38912 ft | 472 kts | 144° |
| 2026-04-21 10:22 | 39.75423 | 24.37255 | 38909 ft | 472 kts | 144° |
| 2026-04-21 10:23 | 39.69197 | 24.43784 | 38906 ft | 472 kts | 144° |
| 2026-04-21 10:23 | 39.62981 | 24.50283 | 38903 ft | 471 kts | 144° |
| 2026-04-21 10:24 | 39.56768 | 24.56767 | 38906 ft | 471 kts | 144° |
| 2026-04-21 10:24 | 39.50506 | 24.63284 | 38903 ft | 471 kts | 144° |
| 2026-04-21 10:25 | 39.44379 | 24.69649 | 38916 ft | 470 kts | 145° |
| 2026-04-21 10:25 | 39.38196 | 24.76052 | 38913 ft | 471 kts | 145° |
| 2026-04-21 10:26 | 39.31998 | 24.82458 | 38908 ft | 471 kts | 145° |
| 2026-04-21 10:26 | 39.25708 | 24.88941 | 38914 ft | 471 kts | 145° |
| 2026-04-21 10:27 | 39.19429 | 24.95402 | 38917 ft | 471 kts | 145° |
| 2026-04-21 10:27 | 39.13065 | 25.01935 | 38907 ft | 471 kts | 145° |
| 2026-04-21 10:28 | 39.06717 | 25.08436 | 38918 ft | 472 kts | 145° |
| 2026-04-21 10:28 | 39.00418 | 25.14869 | 38932 ft | 472 kts | 145° |
| 2026-04-21 10:29 | 38.94048 | 25.21360 | 38912 ft | 471 kts | 145° |
| 2026-04-21 10:29 | 38.87757 | 25.27753 | 38925 ft | 471 kts | 145° |
| 2026-04-21 10:30 | 38.81471 | 25.34128 | 38908 ft | 472 kts | 145° |
| 2026-04-21 10:30 | 38.75195 | 25.40483 | 38929 ft | 472 kts | 145° |
| 2026-04-21 10:31 | 38.68879 | 25.46858 | 38934 ft | 472 kts | 145° |
| 2026-04-21 10:31 | 38.62492 | 25.53289 | 38925 ft | 472 kts | 145° |
| 2026-04-21 10:32 | 38.56044 | 25.59770 | 38925 ft | 472 kts | 145° |
| 2026-04-21 10:32 | 38.49608 | 25.66220 | 38939 ft | 478 kts | 146° |
| 2026-04-21 10:33 | 38.43089 | 25.72736 | 38939 ft | 490 kts | 146° |
| 2026-04-21 10:33 | 38.36414 | 25.79396 | 38946 ft | 499 kts | 146° |
| 2026-04-21 10:34 | 38.29617 | 25.86007 | 38960 ft | 500 kts | 149° |
| 2026-04-21 10:34 | 38.22234 | 25.91533 | 38961 ft | 494 kts | 159° |
| 2026-04-21 10:35 | 38.14367 | 25.95576 | 38955 ft | 489 kts | 165° |
| 2026-04-21 10:35 | 38.06549 | 25.99090 | 38952 ft | 489 kts | 165° |
| 2026-04-21 10:36 | 37.98804 | 26.02594 | 38954 ft | 490 kts | 165° |
| 2026-04-21 10:36 | 37.91028 | 26.06119 | 38951 ft | 491 kts | 165° |
| 2026-04-21 10:37 | 37.83304 | 26.09615 | 38953 ft | 490 kts | 165° |
| 2026-04-21 10:37 | 37.75790 | 26.13008 | 38955 ft | 490 kts | 165° |
| 2026-04-21 10:38 | 37.68226 | 26.16420 | 38951 ft | 490 kts | 165° |
| 2026-04-21 10:38 | 37.60560 | 26.19866 | 38953 ft | 490 kts | 165° |
| 2026-04-21 10:39 | 37.52940 | 26.23281 | 38956 ft | 490 kts | 165° |
| 2026-04-21 10:39 | 37.45343 | 26.26679 | 38950 ft | 489 kts | 165° |
| 2026-04-21 10:40 | 37.37713 | 26.30082 | 38962 ft | 490 kts | 165° |
| 2026-04-21 10:40 | 37.30105 | 26.33468 | 38956 ft | 489 kts | 165° |
| 2026-04-21 10:41 | 37.22395 | 26.36892 | 38956 ft | 489 kts | 165° |
| 2026-04-21 10:41 | 37.18521 | 26.38611 | 38507 ft | 491 kts | 165° |
| 2026-04-21 10:41 | 37.14620 | 26.40342 | 37811 ft | 490 kts | 165° |
| 2026-04-21 10:41 | 37.10738 | 26.42064 | 37044 ft | 490 kts | 165° |
| 2026-04-21 10:42 | 37.06805 | 26.43805 | 36289 ft | 491 kts | 165° |
| 2026-04-21 10:42 | 37.02900 | 26.45530 | 35711 ft | 492 kts | 165° |
| 2026-04-21 10:42 | 36.98937 | 26.47279 | 35098 ft | 493 kts | 164° |
| 2026-04-21 10:42 | 36.94962 | 26.49095 | 34477 ft | 496 kts | 160° |
| 2026-04-21 10:43 | 36.91303 | 26.51743 | 33792 ft | 498 kts | 145° |
| 2026-04-21 10:43 | 36.88324 | 26.55279 | 33141 ft | 495 kts | 130° |
| 2026-04-21 10:43 | 36.86054 | 26.59619 | 32483 ft | 489 kts | 116° |
| 2026-04-21 10:43 | 36.84421 | 26.64320 | 31800 ft | 483 kts | 111° |
| 2026-04-21 10:44 | 36.82940 | 26.68950 | 31142 ft | 477 kts | 112° |
| 2026-04-21 10:44 | 36.81481 | 26.73351 | 30490 ft | 472 kts | 112° |
| 2026-04-21 10:44 | 36.79991 | 26.77727 | 29813 ft | 466 kts | 112° |
| 2026-04-21 10:44 | 36.78494 | 26.82073 | 29114 ft | 461 kts | 112° |
| 2026-04-21 10:45 | 36.77023 | 26.86329 | 28430 ft | 457 kts | 112° |
| 2026-04-21 10:45 | 36.75578 | 26.90504 | 27742 ft | 452 kts | 112° |
| 2026-04-21 10:45 | 36.74175 | 26.94554 | 27083 ft | 448 kts | 112° |
| 2026-04-21 10:45 | 36.72760 | 26.98632 | 26415 ft | 443 kts | 112° |
| 2026-04-21 10:46 | 36.71367 | 27.02639 | 25754 ft | 439 kts | 112° |
| 2026-04-21 10:46 | 36.69974 | 27.06640 | 25087 ft | 435 kts | 112° |
| 2026-04-21 10:46 | 36.68613 | 27.10549 | 24418 ft | 430 kts | 112° |
| 2026-04-21 10:46 | 36.67259 | 27.14435 | 23740 ft | 426 kts | 112° |
| 2026-04-21 10:47 | 36.65897 | 27.18338 | 23067 ft | 422 kts | 112° |
| 2026-04-21 10:47 | 36.64547 | 27.22203 | 22414 ft | 418 kts | 112° |
| 2026-04-21 10:47 | 36.63214 | 27.26007 | 21791 ft | 414 kts | 112° |
| 2026-04-21 10:47 | 36.61891 | 27.29778 | 21194 ft | 410 kts | 112° |
| 2026-04-21 10:48 | 36.60581 | 27.33507 | 20584 ft | 405 kts | 112° |
| 2026-04-21 10:48 | 36.59268 | 27.37238 | 19984 ft | 401 kts | 112° |
| 2026-04-21 10:48 | 36.57982 | 27.40890 | 19391 ft | 396 kts | 112° |
| 2026-04-21 10:48 | 36.56705 | 27.44510 | 18739 ft | 394 kts | 112° |
| 2026-04-21 10:49 | 36.55440 | 27.48092 | 18102 ft | 391 kts | 112° |
| 2026-04-21 10:49 | 36.54160 | 27.51716 | 17463 ft | 388 kts | 112° |
| 2026-04-21 10:49 | 36.52905 | 27.55260 | 16825 ft | 385 kts | 112° |
| 2026-04-21 10:49 | 36.51619 | 27.58889 | 16175 ft | 382 kts | 112° |
| 2026-04-21 10:50 | 36.50776 | 27.61266 | 15748 ft | 380 kts | 112° |
| 2026-04-21 10:50 | 36.49135 | 27.65882 | 14901 ft | 376 kts | 112° |
| 2026-04-21 10:50 | 36.47940 | 27.69243 | 14260 ft | 373 kts | 112° |
| 2026-04-21 10:50 | 36.46835 | 27.72656 | 13645 ft | 370 kts | 107° |
| 2026-04-21 10:51 | 36.46114 | 27.76212 | 12967 ft | 365 kts | 99° |
| 2026-04-21 10:51 | 36.45642 | 27.79669 | 12357 ft | 362 kts | 97° |
| 2026-04-21 10:51 | 36.45193 | 27.83204 | 11741 ft | 359 kts | 97° |
| 2026-04-21 10:51 | 36.44743 | 27.86677 | 11121 ft | 356 kts | 98° |
| 2026-04-21 10:52 | 36.44287 | 27.90102 | 10504 ft | 353 kts | 98° |
| 2026-04-21 10:52 | 36.43773 | 27.93569 | 9861 ft | 351 kts | 104° |
| 2026-04-21 10:52 | 36.42368 | 27.96691 | 9205 ft | 348 kts | 130° |
| 2026-04-21 10:52 | 36.40564 | 27.99474 | 8551 ft | 344 kts | 119° |
| 2026-04-21 10:53 | 36.39708 | 28.02776 | 7914 ft | 339 kts | 98° |
| 2026-04-21 10:53 | 36.39352 | 28.06123 | 7286 ft | 336 kts | 95° |
| 2026-04-21 10:53 | 36.39070 | 28.09318 | 6737 ft | 318 kts | 95° |
| 2026-04-21 10:53 | 36.38815 | 28.12294 | 6313 ft | 293 kts | 95° |
| 2026-04-21 10:54 | 36.38579 | 28.15067 | 5892 ft | 277 kts | 95° |
| 2026-04-21 10:54 | 36.38353 | 28.17759 | 5461 ft | 263 kts | 95° |
| 2026-04-21 10:54 | 36.38159 | 28.20326 | 5026 ft | 251 kts | 89° |
| 2026-04-21 10:54 | 36.38572 | 28.22743 | 4597 ft | 249 kts | 68° |
| 2026-04-21 10:55 | 36.39344 | 28.25077 | 4147 ft | 239 kts | 65° |
| 2026-04-21 10:55 | 36.40129 | 28.27327 | 3691 ft | 228 kts | 65° |
| 2026-04-21 10:55 | 36.40978 | 28.29449 | 3219 ft | 217 kts | 48° |
| 2026-04-21 10:55 | 36.42435 | 28.30483 | 3039 ft | 188 kts | 3° |
| 2026-04-21 10:56 | 36.43735 | 28.29943 | 3038 ft | 155 kts | 313° |
| 2026-04-21 10:56 | 36.44226 | 28.28686 | 2975 ft | 132 kts | 287° |
| 2026-04-21 10:56 | 36.44515 | 28.27424 | 2984 ft | 129 kts | 285° |
| 2026-04-21 10:56 | 36.44794 | 28.26157 | 2993 ft | 129 kts | 285° |
| 2026-04-21 10:57 | 36.44976 | 28.24868 | 2997 ft | 128 kts | 267° |
| 2026-04-21 10:57 | 36.44790 | 28.23615 | 2969 ft | 132 kts | 257° |
| 2026-04-21 10:57 | 36.44492 | 28.22262 | 2394 ft | 145 kts | 256° |
| 2026-04-21 10:57 | 36.44206 | 28.20967 | 2153 ft | 137 kts | 252° |
| 2026-04-21 10:58 | 36.43825 | 28.19693 | 1721 ft | 141 kts | 250° |
| 2026-04-21 10:58 | 36.43432 | 28.18393 | 1239 ft | 141 kts | 250° |
| 2026-04-21 10:58 | 36.43096 | 28.17207 | 1112 ft | 124 kts | 254° |
| 2026-04-21 10:58 | 36.42851 | 28.16056 | 878 ft | 120 kts | 250° |
| 2026-04-21 10:59 | 36.42447 | 28.14994 | 679 ft | 119 kts | 250° |
| 2026-04-21 10:59 | 36.42094 | 28.13955 | 584 ft | 118 kts | 248° |
| 2026-04-21 10:59 | 36.41764 | 28.12884 | 504 ft | 118 kts | 251° |
| 2026-04-21 10:59 | 36.41452 | 28.11799 | 356 ft | 117 kts | 249° |
| 2026-04-21 11:00 | 36.41144 | 28.10735 | 128 ft | 115 kts | 250° |
| 2026-04-21 11:00 | 36.40853 | 28.09724 | 23 ft | 107 kts | 250° |
| 2026-04-21 11:00 | 36.40627 | 28.08916 | 24 ft | 64 kts | 248° |
| 2026-04-21 11:00 | 36.40516 | 28.08654 | 24 ft | 19 kts | 190° |
| 2026-04-21 11:01 | 36.40432 | 28.08769 | 28 ft | 10 kts | 113° |
| 2026-04-21 11:01 | 36.40404 | 28.08857 | 30 ft | 9 kts | 108° |
| 2026-04-21 11:01 | 36.40396 | 28.08947 | 32 ft | 9 kts | 92° |
| 2026-04-21 11:02 | 36.40407 | 28.09116 | 34 ft | 6 kts | 141° |
| 2026-04-21 11:02 | 36.40369 | 28.09138 | 36 ft | 3 kts | 160° |
| 2026-04-21 11:02 | 36.40361 | 28.09142 | 36 ft | 0 kts | 160° |